sensor_id;sensor_type;location;lat;lon;timestamp;temperature;humidity
52297;DHT22;38244;51.046;17.038;2022-07-30T00:02:21;19.77;61.59
52297;DHT22;38244;51.046;17.038;2022-07-30T00:04:49;19.78;61.53
52297;DHT22;38244;51.046;17.038;2022-07-30T00:07:17;19.80;61.37
52297;DHT22;38244;51.046;17.038;2022-07-30T00:09:46;19.78;61.17
52297;DHT22;38244;51.046;17.038;2022-07-30T00:12:17;19.75;61.12
52297;DHT22;38244;51.046;17.038;2022-07-30T00:14:47;19.72;61.17
52297;DHT22;38244;51.046;17.038;2022-07-30T00:17:18;19.71;61.01
52297;DHT22;38244;51.046;17.038;2022-07-30T00:19:51;19.75;60.89
52297;DHT22;38244;51.046;17.038;2022-07-30T00:22:17;19.77;60.52
52297;DHT22;38244;51.046;17.038;2022-07-30T00:24:43;19.82;60.03
52297;DHT22;38244;51.046;17.038;2022-07-30T00:27:09;19.81;59.77
52297;DHT22;38244;51.046;17.038;2022-07-30T00:29:36;19.78;59.66
52297;DHT22;38244;51.046;17.038;2022-07-30T00:32:02;19.75;59.62
52297;DHT22;38244;51.046;17.038;2022-07-30T00:34:28;19.74;59.79
52297;DHT22;38244;51.046;17.038;2022-07-30T00:36:55;19.68;59.77
52297;DHT22;38244;51.046;17.038;2022-07-30T00:42:07;19.67;59.65
52297;DHT22;38244;51.046;17.038;2022-07-30T00:44:33;19.65;59.60
52297;DHT22;38244;51.046;17.038;2022-07-30T00:47:00;19.63;59.51
52297;DHT22;38244;51.046;17.038;2022-07-30T00:49:26;19.58;59.63
52297;DHT22;38244;51.046;17.038;2022-07-30T00:51:52;19.54;59.71
52297;DHT22;38244;51.046;17.038;2022-07-30T00:54:19;19.54;59.84
52297;DHT22;38244;51.046;17.038;2022-07-30T00:56:48;19.52;59.68
52297;DHT22;38244;51.046;17.038;2022-07-30T00:59:35;19.47;59.71
52297;DHT22;38244;51.046;17.038;2022-07-30T01:02:01;19.47;59.62
52297;DHT22;38244;51.046;17.038;2022-07-30T01:04:28;19.46;59.53
52297;DHT22;38244;51.046;17.038;2022-07-30T01:06:55;19.46;59.52
52297;DHT22;38244;51.046;17.038;2022-07-30T01:09:41;19.43;59.70
52297;DHT22;38244;51.046;17.038;2022-07-30T01:12:09;19.46;59.52
52297;DHT22;38244;51.046;17.038;2022-07-30T01:14:36;19.47;59.58
52297;DHT22;38244;51.046;17.038;2022-07-30T01:17:04;19.47;59.48
52297;DHT22;38244;51.046;17.038;2022-07-30T01:19:34;19.50;59.48
52297;DHT22;38244;51.046;17.038;2022-07-30T01:25:08;19.52;59.32
52297;DHT22;38244;51.046;17.038;2022-07-30T01:28:09;19.54;59.11
52297;DHT22;38244;51.046;17.038;2022-07-30T01:30:39;19.56;59.30
52297;DHT22;38244;51.046;17.038;2022-07-30T01:33:11;19.56;59.15
52297;DHT22;38244;51.046;17.038;2022-07-30T01:35:40;19.56;59.19
52297;DHT22;38244;51.046;17.038;2022-07-30T01:38:10;19.60;59.12
52297;DHT22;38244;51.046;17.038;2022-07-30T01:40:42;19.60;58.78
52297;DHT22;38244;51.046;17.038;2022-07-30T01:43:10;19.60;58.84
52297;DHT22;38244;51.046;17.038;2022-07-30T01:45:37;19.60;58.89
52297;DHT22;38244;51.046;17.038;2022-07-30T01:48:05;19.63;58.84
52297;DHT22;38244;51.046;17.038;2022-07-30T01:50:33;19.60;58.84
52297;DHT22;38244;51.046;17.038;2022-07-30T01:53:02;19.60;58.93
52297;DHT22;38244;51.046;17.038;2022-07-30T01:55:35;19.58;58.86
52297;DHT22;38244;51.046;17.038;2022-07-30T01:58:40;19.58;58.79
52297;DHT22;38244;51.046;17.038;2022-07-30T02:01:07;19.58;58.77
52297;DHT22;38244;51.046;17.038;2022-07-30T02:03:34;19.57;58.80
52297;DHT22;38244;51.046;17.038;2022-07-30T02:06:15;19.53;58.90
52297;DHT22;38244;51.046;17.038;2022-07-30T02:11:19;19.56;58.93
52297;DHT22;38244;51.046;17.038;2022-07-30T02:14:13;19.54;58.88
52297;DHT22;38244;51.046;17.038;2022-07-30T02:16:40;19.57;58.85
52297;DHT22;38244;51.046;17.038;2022-07-30T02:19:12;19.56;58.92
52297;DHT22;38244;51.046;17.038;2022-07-30T02:21:46;19.56;58.79
52297;DHT22;38244;51.046;17.038;2022-07-30T02:24:13;19.57;59.02
52297;DHT22;38244;51.046;17.038;2022-07-30T02:26:41;19.57;58.97
52297;DHT22;38244;51.046;17.038;2022-07-30T02:29:46;19.58;58.94
52297;DHT22;38244;51.046;17.038;2022-07-30T02:32:16;19.58;58.99
52297;DHT22;38244;51.046;17.038;2022-07-30T02:34:45;19.57;59.09
52297;DHT22;38244;51.046;17.038;2022-07-30T02:37:13;19.58;58.85
52297;DHT22;38244;51.046;17.038;2022-07-30T02:39:42;19.58;58.99
52297;DHT22;38244;51.046;17.038;2022-07-30T02:42:10;19.56;59.05
52297;DHT22;38244;51.046;17.038;2022-07-30T02:44:38;19.56;59.13
52297;DHT22;38244;51.046;17.038;2022-07-30T02:47:06;19.53;59.16
52297;DHT22;38244;51.046;17.038;2022-07-30T02:49:34;19.53;59.25
52297;DHT22;38244;51.046;17.038;2022-07-30T02:52:02;19.49;59.17
52297;DHT22;38244;51.046;17.038;2022-07-30T02:54:30;19.52;59.19
52297;DHT22;38244;51.046;17.038;2022-07-30T02:56:58;19.47;59.38
52297;DHT22;38244;51.046;17.038;2022-07-30T02:59:26;19.49;59.41
52297;DHT22;38244;51.046;17.038;2022-07-30T03:01:54;19.47;59.39
52297;DHT22;38244;51.046;17.038;2022-07-30T03:04:21;19.47;59.35
52297;DHT22;38244;51.046;17.038;2022-07-30T03:06:48;19.47;59.34
52297;DHT22;38244;51.046;17.038;2022-07-30T03:09:52;19.49;59.47
52297;DHT22;38244;51.046;17.038;2022-07-30T03:12:21;19.45;59.42
52297;DHT22;38244;51.046;17.038;2022-07-30T03:14:49;19.45;59.43
52297;DHT22;38244;51.046;17.038;2022-07-30T03:17:17;19.42;59.58
52297;DHT22;38244;51.046;17.038;2022-07-30T03:19:45;19.42;59.71
52297;DHT22;38244;51.046;17.038;2022-07-30T03:22:14;19.42;59.89
52297;DHT22;38244;51.046;17.038;2022-07-30T03:24:43;19.39;59.84
52297;DHT22;38244;51.046;17.038;2022-07-30T03:27:10;19.40;59.81
52297;DHT22;38244;51.046;17.038;2022-07-30T03:29:39;19.37;59.73
52297;DHT22;38244;51.046;17.038;2022-07-30T03:32:06;19.37;59.91
52297;DHT22;38244;51.046;17.038;2022-07-30T03:34:34;19.37;59.93
52297;DHT22;38244;51.046;17.038;2022-07-30T03:37:03;19.36;60.02
52297;DHT22;38244;51.046;17.038;2022-07-30T03:39:34;19.35;59.95
52297;DHT22;38244;51.046;17.038;2022-07-30T03:42:02;19.35;60.02
52297;DHT22;38244;51.046;17.038;2022-07-30T03:44:30;19.36;60.02
52297;DHT22;38244;51.046;17.038;2022-07-30T03:46:58;19.39;60.13
52297;DHT22;38244;51.046;17.038;2022-07-30T03:49:28;19.39;60.07
52297;DHT22;38244;51.046;17.038;2022-07-30T03:51:54;19.42;60.04
52297;DHT22;38244;51.046;17.038;2022-07-30T03:54:21;19.43;60.02
52297;DHT22;38244;51.046;17.038;2022-07-30T03:56:48;19.46;60.00
52297;DHT22;38244;51.046;17.038;2022-07-30T03:59:15;19.46;59.94
52297;DHT22;38244;51.046;17.038;2022-07-30T04:01:41;19.49;59.93
52297;DHT22;38244;51.046;17.038;2022-07-30T04:04:09;19.54;59.68
52297;DHT22;38244;51.046;17.038;2022-07-30T04:06:37;19.54;59.89
52297;DHT22;38244;51.046;17.038;2022-07-30T04:09:09;19.56;59.84
52297;DHT22;38244;51.046;17.038;2022-07-30T04:11:36;19.63;59.77
52297;DHT22;38244;51.046;17.038;2022-07-30T04:14:03;19.63;59.68
52297;DHT22;38244;51.046;17.038;2022-07-30T04:16:38;19.68;59.60
52297;DHT22;38244;51.046;17.038;2022-07-30T04:19:07;19.72;59.56
52297;DHT22;38244;51.046;17.038;2022-07-30T04:21:35;19.78;59.30
52297;DHT22;38244;51.046;17.038;2022-07-30T04:24:04;19.81;59.15
52297;DHT22;38244;51.046;17.038;2022-07-30T04:26:35;19.85;59.16
52297;DHT22;38244;51.046;17.038;2022-07-30T04:29:40;19.89;59.05
52297;DHT22;38244;51.046;17.038;2022-07-30T04:32:07;19.97;58.90
52297;DHT22;38244;51.046;17.038;2022-07-30T04:34:34;19.99;58.69
52297;DHT22;38244;51.046;17.038;2022-07-30T04:37:01;20.05;58.59
52297;DHT22;38244;51.046;17.038;2022-07-30T04:42:44;20.15;58.46
52297;DHT22;38244;51.046;17.038;2022-07-30T04:45:10;20.17;58.23
52297;DHT22;38244;51.046;17.038;2022-07-30T04:47:36;20.22;58.30
52297;DHT22;38244;51.046;17.038;2022-07-30T04:50:05;20.26;58.22
52297;DHT22;38244;51.046;17.038;2022-07-30T04:52:33;20.34;58.06
52297;DHT22;38244;51.046;17.038;2022-07-30T04:55:03;20.40;58.11
52297;DHT22;38244;51.046;17.038;2022-07-30T04:57:30;20.48;57.74
52297;DHT22;38244;51.046;17.038;2022-07-30T04:59:58;20.58;57.44
52297;DHT22;38244;51.046;17.038;2022-07-30T05:02:29;20.67;56.91
52297;DHT22;38244;51.046;17.038;2022-07-30T05:04:57;20.81;56.88
52297;DHT22;38244;51.046;17.038;2022-07-30T05:07:25;20.91;56.59
52297;DHT22;38244;51.046;17.038;2022-07-30T05:09:52;21.03;56.35
52297;DHT22;38244;51.046;17.038;2022-07-30T05:12:18;21.13;55.99
52297;DHT22;38244;51.046;17.038;2022-07-30T05:14:45;21.30;55.76
52297;DHT22;38244;51.046;17.038;2022-07-30T05:17:11;21.38;55.44
52297;DHT22;38244;51.046;17.038;2022-07-30T05:19:38;21.50;55.32
52297;DHT22;38244;51.046;17.038;2022-07-30T05:22:04;21.62;54.87
52297;DHT22;38244;51.046;17.038;2022-07-30T05:24:30;21.72;54.28
52297;DHT22;38244;51.046;17.038;2022-07-30T05:26:56;21.85;54.15
52297;DHT22;38244;51.046;17.038;2022-07-30T05:29:22;21.96;53.92
52297;DHT22;38244;51.046;17.038;2022-07-30T05:31:49;22.04;53.49
52297;DHT22;38244;51.046;17.038;2022-07-30T05:34:15;22.12;53.40
52297;DHT22;38244;51.046;17.038;2022-07-30T05:36:41;22.13;53.14
52297;DHT22;38244;51.046;17.038;2022-07-30T05:39:12;22.14;52.99
52297;DHT22;38244;51.046;17.038;2022-07-30T05:41:48;22.13;52.96
52297;DHT22;38244;51.046;17.038;2022-07-30T05:44:16;22.09;53.10
52297;DHT22;38244;51.046;17.038;2022-07-30T05:46:42;22.13;52.74
52297;DHT22;38244;51.046;17.038;2022-07-30T05:49:29;22.13;52.72
52297;DHT22;38244;51.046;17.038;2022-07-30T05:51:55;22.13;52.81
52297;DHT22;38244;51.046;17.038;2022-07-30T05:54:22;22.20;52.68
52297;DHT22;38244;51.046;17.038;2022-07-30T05:56:48;22.28;52.41
52297;DHT22;38244;51.046;17.038;2022-07-30T05:59:55;22.39;52.40
52297;DHT22;38244;51.046;17.038;2022-07-30T06:02:21;22.47;52.00
52297;DHT22;38244;51.046;17.038;2022-07-30T06:04:47;22.58;51.96
52297;DHT22;38244;51.046;17.038;2022-07-30T06:07:14;22.65;51.81
52297;DHT22;38244;51.046;17.038;2022-07-30T06:09:40;22.72;51.59
52297;DHT22;38244;51.046;17.038;2022-07-30T06:12:06;22.78;51.20
52297;DHT22;38244;51.046;17.038;2022-07-30T06:14:33;22.82;51.27
52297;DHT22;38244;51.046;17.038;2022-07-30T06:16:59;22.83;51.02
52297;DHT22;38244;51.046;17.038;2022-07-30T06:22:33;22.82;51.20
52297;DHT22;38244;51.046;17.038;2022-07-30T06:25:00;22.85;51.01
52297;DHT22;38244;51.046;17.038;2022-07-30T06:28:06;22.83;51.12
52297;DHT22;38244;51.046;17.038;2022-07-30T06:30:34;22.85;51.20
52297;DHT22;38244;51.046;17.038;2022-07-30T06:33:00;22.83;50.98
52297;DHT22;38244;51.046;17.038;2022-07-30T06:35:26;22.79;50.89
52297;DHT22;38244;51.046;17.038;2022-07-30T06:38:02;22.80;51.09
52297;DHT22;38244;51.046;17.038;2022-07-30T06:40:31;22.80;51.11
52297;DHT22;38244;51.046;17.038;2022-07-30T06:42:58;22.85;51.18
52297;DHT22;38244;51.046;17.038;2022-07-30T06:45:25;22.82;51.15
52297;DHT22;38244;51.046;17.038;2022-07-30T06:47:57;22.85;51.31
52297;DHT22;38244;51.046;17.038;2022-07-30T06:50:24;22.87;50.83
52297;DHT22;38244;51.046;17.038;2022-07-30T06:52:51;22.96;51.04
52297;DHT22;38244;51.046;17.038;2022-07-30T06:55:17;23.03;50.58
52297;DHT22;38244;51.046;17.038;2022-07-30T06:57:43;23.09;50.53
52297;DHT22;38244;51.046;17.038;2022-07-30T07:00:11;23.17;50.22
52297;DHT22;38244;51.046;17.038;2022-07-30T07:02:51;23.28;50.19
52297;DHT22;38244;51.046;17.038;2022-07-30T07:05:29;23.45;50.08
52297;DHT22;38244;51.046;17.038;2022-07-30T07:08:38;23.58;49.52
52297;DHT22;38244;51.046;17.038;2022-07-30T07:11:02;23.73;49.47
52297;DHT22;38244;51.046;17.038;2022-07-30T07:13:28;23.86;48.98
52297;DHT22;38244;51.046;17.038;2022-07-30T07:19:42;24.00;48.92
52297;DHT22;38244;51.046;17.038;2022-07-30T07:22:08;24.04;48.83
52297;DHT22;38244;51.046;17.038;2022-07-30T07:24:34;24.07;48.91
52297;DHT22;38244;51.046;17.038;2022-07-30T07:27:00;24.08;48.61
52297;DHT22;38244;51.046;17.038;2022-07-30T07:29:27;24.12;48.36
52297;DHT22;38244;51.046;17.038;2022-07-30T07:31:53;24.18;48.27
52297;DHT22;38244;51.046;17.038;2022-07-30T07:34:19;24.21;48.21
52297;DHT22;38244;51.046;17.038;2022-07-30T07:36:46;24.32;48.15
52297;DHT22;38244;51.046;17.038;2022-07-30T07:42:37;24.70;47.69
52297;DHT22;38244;51.046;17.038;2022-07-30T07:45:05;24.80;47.51
52297;DHT22;38244;51.046;17.038;2022-07-30T07:47:46;24.87;47.09
52297;DHT22;38244;51.046;17.038;2022-07-30T07:50:15;25.01;46.41
52297;DHT22;38244;51.046;17.038;2022-07-30T07:52:42;25.04;46.50
52297;DHT22;38244;51.046;17.038;2022-07-30T07:55:09;25.10;46.22
52297;DHT22;38244;51.046;17.038;2022-07-30T07:57:44;25.11;46.05
52297;DHT22;38244;51.046;17.038;2022-07-30T08:00:13;25.12;46.25
52297;DHT22;38244;51.046;17.038;2022-07-30T08:02:40;25.15;46.23
52297;DHT22;38244;51.046;17.038;2022-07-30T08:05:08;25.18;46.35
52297;DHT22;38244;51.046;17.038;2022-07-30T08:07:35;25.21;46.03
52297;DHT22;38244;51.046;17.038;2022-07-30T08:10:02;25.21;45.84
52297;DHT22;38244;51.046;17.038;2022-07-30T08:12:29;25.17;45.63
52297;DHT22;38244;51.046;17.038;2022-07-30T08:14:56;25.15;45.91
52297;DHT22;38244;51.046;17.038;2022-07-30T08:17:22;25.11;45.88
52297;DHT22;38244;51.046;17.038;2022-07-30T08:19:48;25.10;45.79
52297;DHT22;38244;51.046;17.038;2022-07-30T08:22:15;25.03;46.20
52297;DHT22;38244;51.046;17.038;2022-07-30T08:24:41;24.97;46.60
52297;DHT22;38244;51.046;17.038;2022-07-30T08:27:07;24.94;46.58
52297;DHT22;38244;51.046;17.038;2022-07-30T08:29:34;24.93;46.76
52297;DHT22;38244;51.046;17.038;2022-07-30T08:32:01;24.93;46.82
52297;DHT22;38244;51.046;17.038;2022-07-30T08:34:27;24.98;46.41
52297;DHT22;38244;51.046;17.038;2022-07-30T08:36:54;25.08;46.25
52297;DHT22;38244;51.046;17.038;2022-07-30T08:39:21;25.23;46.59
52297;DHT22;38244;51.046;17.038;2022-07-30T08:41:48;25.42;46.05
52297;DHT22;38244;51.046;17.038;2022-07-30T08:44:17;25.69;45.47
52297;DHT22;38244;51.046;17.038;2022-07-30T08:46:46;25.91;45.57
52297;DHT22;38244;51.046;17.038;2022-07-30T08:49:14;26.15;44.94
52297;DHT22;38244;51.046;17.038;2022-07-30T08:51:41;26.43;44.39
52297;DHT22;38244;51.046;17.038;2022-07-30T08:54:08;26.60;44.05
52297;DHT22;38244;51.046;17.038;2022-07-30T08:56:34;26.73;43.79
52297;DHT22;38244;51.046;17.038;2022-07-30T08:59:21;26.75;43.69
52297;DHT22;38244;51.046;17.038;2022-07-30T09:01:48;26.80;43.25
52297;DHT22;38244;51.046;17.038;2022-07-30T09:04:15;26.80;43.35
52297;DHT22;38244;51.046;17.038;2022-07-30T09:06:41;26.68;43.68
52297;DHT22;38244;51.046;17.038;2022-07-30T09:09:13;26.61;43.46
52297;DHT22;38244;51.046;17.038;2022-07-30T09:11:37;26.46;44.10
52297;DHT22;38244;51.046;17.038;2022-07-30T09:14:13;26.35;44.16
52297;DHT22;38244;51.046;17.038;2022-07-30T09:16:40;26.21;44.41
52297;DHT22;38244;51.046;17.038;2022-07-30T09:19:20;26.15;45.41
52297;DHT22;38244;51.046;17.038;2022-07-30T09:21:59;26.15;46.16
52297;DHT22;38244;51.046;17.038;2022-07-30T09:24:26;26.08;46.70
52297;DHT22;38244;51.046;17.038;2022-07-30T09:27:02;26.08;47.17
52297;DHT22;38244;51.046;17.038;2022-07-30T09:29:31;26.04;47.67
52297;DHT22;38244;51.046;17.038;2022-07-30T09:32:06;25.98;48.31
52297;DHT22;38244;51.046;17.038;2022-07-30T09:34:38;25.91;47.25
52297;DHT22;38244;51.046;17.038;2022-07-30T09:39:41;25.76;50.17
52297;DHT22;38244;51.046;17.038;2022-07-30T09:42:24;25.70;50.25
52297;DHT22;38244;51.046;17.038;2022-07-30T09:45:11;25.57;51.07
52297;DHT22;38244;51.046;17.038;2022-07-30T09:47:44;25.46;48.83
52297;DHT22;38244;51.046;17.038;2022-07-30T09:50:16;25.32;50.83
52297;DHT22;38244;51.046;17.038;2022-07-30T09:52:45;25.21;51.57
52297;DHT22;38244;51.046;17.038;2022-07-30T09:55:13;25.07;52.43
52297;DHT22;38244;51.046;17.038;2022-07-30T09:58:17;24.88;51.87
52297;DHT22;38244;51.046;17.038;2022-07-30T10:00:44;24.74;51.72
52297;DHT22;38244;51.046;17.038;2022-07-30T10:03:23;24.63;53.46
52297;DHT22;38244;51.046;17.038;2022-07-30T10:05:52;24.46;52.88
52297;DHT22;38244;51.046;17.038;2022-07-30T10:08:49;24.34;52.97
52297;DHT22;38244;51.046;17.038;2022-07-30T10:11:19;24.19;54.85
52297;DHT22;38244;51.046;17.038;2022-07-30T10:13:49;24.04;55.99
52297;DHT22;38244;51.046;17.038;2022-07-30T10:16:16;23.96;56.39
52297;DHT22;38244;51.046;17.038;2022-07-30T10:18:43;23.84;55.91
52297;DHT22;38244;51.046;17.038;2022-07-30T10:21:09;23.76;56.47
52297;DHT22;38244;51.046;17.038;2022-07-30T10:23:36;23.69;58.09
52297;DHT22;38244;51.046;17.038;2022-07-30T10:26:03;23.62;58.25
52297;DHT22;38244;51.046;17.038;2022-07-30T10:28:30;23.59;58.15
52297;DHT22;38244;51.046;17.038;2022-07-30T10:30:57;23.58;58.60
52297;DHT22;38244;51.046;17.038;2022-07-30T10:33:27;23.58;59.04
52297;DHT22;38244;51.046;17.038;2022-07-30T10:35:55;23.58;58.26
52297;DHT22;38244;51.046;17.038;2022-07-30T10:38:29;23.63;56.94
52297;DHT22;38244;51.046;17.038;2022-07-30T10:44:03;23.97;56.85
52297;DHT22;38244;51.046;17.038;2022-07-30T10:49:39;24.42;56.97
52297;DHT22;38244;51.046;17.038;2022-07-30T10:52:06;24.63;55.79
52297;DHT22;38244;51.046;17.038;2022-07-30T10:54:37;24.81;55.68
52297;DHT22;38244;51.046;17.038;2022-07-30T10:57:19;24.98;55.20
52297;DHT22;38244;51.046;17.038;2022-07-30T11:02:30;25.26;54.53
52297;DHT22;38244;51.046;17.038;2022-07-30T11:05:21;25.29;54.68
52297;DHT22;38244;51.046;17.038;2022-07-30T11:07:49;25.26;54.55
52297;DHT22;38244;51.046;17.038;2022-07-30T11:10:38;25.23;54.91
52297;DHT22;38244;51.046;17.038;2022-07-30T11:13:06;25.26;54.81
52297;DHT22;38244;51.046;17.038;2022-07-30T11:15:55;25.28;54.96
52297;DHT22;38244;51.046;17.038;2022-07-30T11:18:23;25.28;55.75
52297;DHT22;38244;51.046;17.038;2022-07-30T11:21:18;25.33;55.32
52297;DHT22;38244;51.046;17.038;2022-07-30T11:23:45;25.39;55.03
52297;DHT22;38244;51.046;17.038;2022-07-30T11:29:42;25.30;54.85
52297;DHT22;38244;51.046;17.038;2022-07-30T11:32:31;25.18;54.72
52297;DHT22;38244;51.046;17.038;2022-07-30T11:35:25;25.03;55.68
52297;DHT22;38244;51.046;17.038;2022-07-30T11:38:04;24.91;55.09
52297;DHT22;38244;51.046;17.038;2022-07-30T11:43:26;24.62;56.48
52297;DHT22;38244;51.046;17.038;2022-07-30T11:48:53;24.31;58.13
52297;DHT22;38244;51.046;17.038;2022-07-30T11:51:10;24.15;58.07
52297;DHT22;38244;51.046;17.038;2022-07-30T11:53:38;24.07;58.41
52297;DHT22;38244;51.046;17.038;2022-07-30T11:56:04;23.92;58.59
52297;DHT22;38244;51.046;17.038;2022-07-30T11:58:36;23.79;59.86
52297;DHT22;38244;51.046;17.038;2022-07-30T12:01:15;23.67;59.60
52297;DHT22;38244;51.046;17.038;2022-07-30T12:03:44;23.55;61.41
52297;DHT22;38244;51.046;17.038;2022-07-30T12:06:14;23.45;62.23
52297;DHT22;38244;51.046;17.038;2022-07-30T12:09:22;23.34;62.26
52297;DHT22;38244;51.046;17.038;2022-07-30T12:11:51;23.18;62.32
52297;DHT22;38244;51.046;17.038;2022-07-30T12:14:17;23.07;61.80
52297;DHT22;38244;51.046;17.038;2022-07-30T12:16:50;23.00;62.21
52297;DHT22;38244;51.046;17.038;2022-07-30T12:19:56;22.93;62.56
52297;DHT22;38244;51.046;17.038;2022-07-30T12:22:22;23.45;61.07
52297;DHT22;38244;51.046;17.038;2022-07-30T12:24:49;24.08;59.80
52297;DHT22;38244;51.046;17.038;2022-07-30T12:27:16;24.55;59.26
52297;DHT22;38244;51.046;17.038;2022-07-30T12:29:45;24.52;58.48
52297;DHT22;38244;51.046;17.038;2022-07-30T12:32:13;24.11;60.42
52297;DHT22;38244;51.046;17.038;2022-07-30T12:34:39;23.80;60.97
52297;DHT22;38244;51.046;17.038;2022-07-30T12:37:08;23.50;61.71
52297;DHT22;38244;51.046;17.038;2022-07-30T12:39:35;23.28;61.94
52297;DHT22;38244;51.046;17.038;2022-07-30T12:42:01;23.04;63.18
52297;DHT22;38244;51.046;17.038;2022-07-30T12:44:42;23.30;63.37
52297;DHT22;38244;51.046;17.038;2022-07-30T12:47:27;23.96;61.15
52297;DHT22;38244;51.046;17.038;2022-07-30T12:49:58;24.43;59.39
52297;DHT22;38244;51.046;17.038;2022-07-30T12:52:28;24.31;60.19
52297;DHT22;38244;51.046;17.038;2022-07-30T12:55:03;23.77;61.77
52297;DHT22;38244;51.046;17.038;2022-07-30T12:57:49;23.37;62.60
52297;DHT22;38244;51.046;17.038;2022-07-30T13:00:05;23.48;62.54
52297;DHT22;38244;51.046;17.038;2022-07-30T13:02:35;23.97;60.70
52297;DHT22;38244;51.046;17.038;2022-07-30T13:05:02;24.22;59.90
52297;DHT22;38244;51.046;17.038;2022-07-30T13:07:29;23.92;60.67
52297;DHT22;38244;51.046;17.038;2022-07-30T13:10:09;23.40;61.68
52297;DHT22;38244;51.046;17.038;2022-07-30T13:12:36;22.91;63.40
52297;DHT22;38244;51.046;17.038;2022-07-30T13:15:04;23.04;63.86
52297;DHT22;38244;51.046;17.038;2022-07-30T13:17:31;23.55;62.62
52297;DHT22;38244;51.046;17.038;2022-07-30T13:19:59;23.93;61.57
52297;DHT22;38244;51.046;17.038;2022-07-30T13:22:26;24.12;60.70
52297;DHT22;38244;51.046;17.038;2022-07-30T13:24:52;24.29;60.20
52297;DHT22;38244;51.046;17.038;2022-07-30T13:27:39;23.97;61.24
52297;DHT22;38244;51.046;17.038;2022-07-30T13:30:06;23.32;62.45
52297;DHT22;38244;51.046;17.038;2022-07-30T13:32:32;23.23;63.31
52297;DHT22;38244;51.046;17.038;2022-07-30T13:34:59;23.65;62.20
52297;DHT22;38244;51.046;17.038;2022-07-30T13:37:25;23.96;61.06
52297;DHT22;38244;51.046;17.038;2022-07-30T13:39:51;24.11;60.87
52297;DHT22;38244;51.046;17.038;2022-07-30T13:42:17;24.22;60.57
52297;DHT22;38244;51.046;17.038;2022-07-30T13:44:44;24.31;60.34
52297;DHT22;38244;51.046;17.038;2022-07-30T13:47:13;23.93;60.88
52297;DHT22;38244;51.046;17.038;2022-07-30T13:49:40;23.32;62.57
52297;DHT22;38244;51.046;17.038;2022-07-30T13:52:08;23.20;63.31
52297;DHT22;38244;51.046;17.038;2022-07-30T13:54:34;23.60;62.44
52297;DHT22;38244;51.046;17.038;2022-07-30T13:57:01;23.90;61.81
52297;DHT22;38244;51.046;17.038;2022-07-30T13:59:28;24.03;61.58
52297;DHT22;38244;51.046;17.038;2022-07-30T14:01:56;24.10;60.80
52297;DHT22;38244;51.046;17.038;2022-07-30T14:04:22;24.04;60.82
52297;DHT22;38244;51.046;17.038;2022-07-30T14:06:48;24.10;60.85
52297;DHT22;38244;51.046;17.038;2022-07-30T14:09:23;24.15;60.86
52297;DHT22;38244;51.046;17.038;2022-07-30T14:11:47;24.22;60.49
52297;DHT22;38244;51.046;17.038;2022-07-30T14:14:13;24.14;60.59
52297;DHT22;38244;51.046;17.038;2022-07-30T14:16:39;24.03;60.36
52297;DHT22;38244;51.046;17.038;2022-07-30T14:19:08;24.04;60.48
52297;DHT22;38244;51.046;17.038;2022-07-30T14:21:34;23.96;60.12
52297;DHT22;38244;51.046;17.038;2022-07-30T14:24:01;24.08;59.86
52297;DHT22;38244;51.046;17.038;2022-07-30T14:26:28;24.12;59.74
52297;DHT22;38244;51.046;17.038;2022-07-30T14:28:54;24.21;59.71
52297;DHT22;38244;51.046;17.038;2022-07-30T14:31:20;23.77;60.87
52297;DHT22;38244;51.046;17.038;2022-07-30T14:33:47;23.28;62.36
52297;DHT22;38244;51.046;17.038;2022-07-30T14:36:13;22.90;63.59
52297;DHT22;38244;51.046;17.038;2022-07-30T14:38:39;23.06;63.78
52297;DHT22;38244;51.046;17.038;2022-07-30T14:41:06;23.58;62.54
52297;DHT22;38244;51.046;17.038;2022-07-30T14:43:33;23.92;61.72
52297;DHT22;38244;51.046;17.038;2022-07-30T14:45:59;24.14;61.51
52297;DHT22;38244;51.046;17.038;2022-07-30T14:48:26;24.25;60.70
52297;DHT22;38244;51.046;17.038;2022-07-30T14:50:54;24.27;60.80
52297;DHT22;38244;51.046;17.038;2022-07-30T14:53:20;24.36;60.25
52297;DHT22;38244;51.046;17.038;2022-07-30T14:55:46;24.46;59.85
52297;DHT22;38244;51.046;17.038;2022-07-30T14:58:34;24.67;60.10
52297;DHT22;38244;51.046;17.038;2022-07-30T15:01:00;24.94;59.14
52297;DHT22;38244;51.046;17.038;2022-07-30T15:03:29;24.76;59.76
52297;DHT22;38244;51.046;17.038;2022-07-30T15:05:56;24.22;61.35
52297;DHT22;38244;51.046;17.038;2022-07-30T15:08:23;23.76;62.71
52297;DHT22;38244;51.046;17.038;2022-07-30T15:10:49;23.80;63.53
52297;DHT22;38244;51.046;17.038;2022-07-30T15:13:15;24.25;62.27
52297;DHT22;38244;51.046;17.038;2022-07-30T15:15:42;24.59;61.28
52297;DHT22;38244;51.046;17.038;2022-07-30T15:18:08;24.80;60.37
52297;DHT22;38244;51.046;17.038;2022-07-30T15:20:35;24.91;59.64
52297;DHT22;38244;51.046;17.038;2022-07-30T15:23:01;25.07;59.54
52297;DHT22;38244;51.046;17.038;2022-07-30T15:25:56;24.76;60.18
52297;DHT22;38244;51.046;17.038;2022-07-30T15:28:37;24.03;61.66
52297;DHT22;38244;51.046;17.038;2022-07-30T15:31:08;23.62;63.62
52297;DHT22;38244;51.046;17.038;2022-07-30T15:33:37;23.76;63.51
52297;DHT22;38244;51.046;17.038;2022-07-30T15:36:09;24.24;61.92
52297;DHT22;38244;51.046;17.038;2022-07-30T15:38:38;24.55;60.84
52297;DHT22;38244;51.046;17.038;2022-07-30T15:41:10;24.77;60.36
52297;DHT22;38244;51.046;17.038;2022-07-30T15:43:37;24.95;59.87
52297;DHT22;38244;51.046;17.038;2022-07-30T15:46:03;25.08;59.57
52297;DHT22;38244;51.046;17.038;2022-07-30T15:48:30;25.12;58.74
52297;DHT22;38244;51.046;17.038;2022-07-30T15:51:02;24.59;60.36
52297;DHT22;38244;51.046;17.038;2022-07-30T15:53:30;24.03;61.48
52297;DHT22;38244;51.046;17.038;2022-07-30T15:55:58;23.58;62.89
52297;DHT22;38244;51.046;17.038;2022-07-30T15:58:24;23.65;62.82
52297;DHT22;38244;51.046;17.038;2022-07-30T16:00:53;24.08;61.55
52297;DHT22;38244;51.046;17.038;2022-07-30T16:03:20;24.38;60.67
52297;DHT22;38244;51.046;17.038;2022-07-30T16:05:47;24.53;59.97
52297;DHT22;38244;51.046;17.038;2022-07-30T16:11:39;23.92;61.11
52297;DHT22;38244;51.046;17.038;2022-07-30T16:14:06;23.44;62.92
52297;DHT22;38244;51.046;17.038;2022-07-30T16:16:32;23.48;63.07
52297;DHT22;38244;51.046;17.038;2022-07-30T16:19:17;23.86;61.86
52297;DHT22;38244;51.046;17.038;2022-07-30T16:21:43;24.10;60.83